Rincon, PR (00677)

9:35 PM AST on August 30, 2015 (GMT -0400)
Barrio Puntas | | Change Station
CLOSE
Current Station
Personal Weather Station
Location: Rincon, PR
Elevation: 0 ft
Nearby Weather Stations

Elev 0 ft 18.37 °N, 67.25 °W | Updated 10 seconds ago

Mostly Cloudy
Mostly Cloudy
79.2 °F
Feels Like 84 °F
N
0.0
Wind Variable Wind from NE
Gusts 0.0 mph

Today
High -- | Low -- °F
--% Chance of Precip.
Yesterday
High -- | Low -- °F
Precip. -- in
6:14 AM 6:44 PM
Full, 97% visible
Pressure 30.03 in
Visibility 10.0 miles
Clouds Scattered Clouds 1300 ft
Scattered Clouds 4400 ft
Mostly Cloudy 5500 ft
Heat Index 84 °F
Dew Point 77 °F
Humidity 93%
Rainfall 0.09 in
Snow Depth Not available.
UV 0 out of 12
Pollen Not available.
Air Quality Not available.
Flu Activity Not available.
METAR TJBQ 302350Z 09005KT 10SM SCT013 SCT044 BKN055 27/25 A3003 RMK RWY 08 ATIS U
Pressure 30.03 in
Visibility 10.0 miles
Clouds Scattered Clouds 1300 ft
Scattered Clouds 4400 ft
Mostly Cloudy 5500 ft
Heat Index 84 °F
Dew Point 77 °F
Humidity 93%
Rainfall 0.09 in
Snow Depth Not available.
UV 0 out of 12
Pollen Not available.
Air Quality Not available.
Flu Activity Not available.
METAR TJBQ 302350Z 09005KT 10SM SCT013 SCT044 BKN055 27/25 A3003 RMK RWY 08 ATIS U

10-Day Weather Forecast

×

Almanac

Astronomy

Aug. 30, 2015 Rise Set
Actual Time
Civil Twilight
Nautical Twilight
Astronomical Twilight
Moon
Length of Visible Light
Length of Day
Tomorrow will be .
, % of the Moon is Illuminated

Today's Extremes

State Highs State Lows

Community

WunderPhotos

Upload Photos

1,851,145 photos uploaded!

WunderBlogs® & News

Nearby

Air Quality

  Air Quality AQ Index Pollutant
Not available.

Snow Depth

Station Depth Elevation

Earthquake Activity

City Distance Mag. Time & Date
Minimum magnitude displayed is 2.5.

Coastal Water Temperatures

Place Temperature

Stations

Nearby Weather Stations

Station Location Temp. Windchill Dew Point Humidity Wind Precip. Elev Updated Type